Daytona Beach International, FL

4:00 PM EDT on March 29, 2015 (GMT -0400)
Daytona Beach International | | Change Station
CLOSE
Current Station
Airport
Location: Daytona Beach,
Elevation: 33 ft
Nearby Weather Stations

Elev 33 ft 29.18 °N, 81.06 °W | Updated 7 minutes ago

Clear
Clear
63 °F
Feels Like 63 °F
N
10
Wind Variable Wind from NE

Today
High -- | Low -- °F
--% Chance of Precip.
Yesterday
High -- | Low -- °F
Precip. -- in
7:17 AM 7:40 PM
Waxing Gibbous, 74% visible
Pressure 30.35 in
Visibility 10.0 miles
Clouds Few 3000 ft
Dew Point 33 °F
Humidity 33%
Rainfall 0.00 in
Snow Depth Not available.
UV 8 out of 12
Pollen 10.40 out of 12
Air Quality Not available.
Flu Activity Not available.
METAR KDAB 291953Z 04009KT 10SM FEW030 17/01 A3035 RMK AO2 SLP275 T01720006

More Conditions Fewer Conditions

Pressure 30.35 in
Visibility 10.0 miles
Clouds Few 3000 ft
Dew Point 33 °F
Humidity 33%
Rainfall 0.00 in
Snow Depth Not available.
UV 8 out of 12
Pollen 10.40 out of 12
Air Quality Not available.
Flu Activity Not available.
METAR KDAB 291953Z 04009KT 10SM FEW030 17/01 A3035 RMK AO2 SLP275 T01720006

More Conditions Fewer Conditions

10-Day Weather Forecast

Almanac

Astronomy

Mar. 29, 2015 Rise Set
Actual Time
Civil Twilight
Nautical Twilight
Astronomical Twilight
Moon
Length of Visible Light
Length of Day
Tomorrow will be .
, % of the Moon is Illuminated

Today's Extremes

State Highs State Lows

Community

WunderPhotos

Upload Photos

1,809,341 photos uploaded!

WunderBlogs® & News

Nearby

Air Quality

  Air Quality AQ Index Pollutant
Not available.

Snow Depth

Station Depth Elevation

Earthquake Activity

City Distance Mag. Time & Date
Minimum magnitude displayed is 2.5.

Coastal Water Temperatures

Place Temperature

Stations

Nearby Weather Stations

Station Location Temp. Windchill Dew Point Humidity Wind Precip. Elev Updated Type